Chautauqua County-Jamestown Airport Jamestown US
ICAO: KJHW
IATA: JHW
Category: Medium
Scheduled Services: No

Elevation: 1723 ft
TransAlt. 18000 ft.

Airport Communications:
ERIE APP/DEP:126.05
AWOS 3:118.425
BUFFALO RDO:114.7
CTAF/UNICOM:122.7

KJHW Zoom In..

If you have problems with the map follow the link
https://www.worldairports.se/pages/airport.php?
ICAO=KJHW

Runways:

(A) RW 07 length 5299 ft width 100 ft
---- / hdg 69

(B) RW 13 length 4500 ft width 100 ft
---- / hdg 129

(C) RW 25 length 5299 ft width 100 ft
ILS 109.70 / hdg 249

(D) RW 31 length 4500 ft width 100 ft
---- / hdg 309

Location; KJHW
Day. 18 / Time. 07.08 Zulu
* Altimeter: 30.30
* Temperature: 01° c. 33.8°f.
* Wind from: 320° Speed 12 kn with Gusts up to 18 kn.
Dewpoint: -02° c.
Visibility: 10 Statute Miles.
Clouds: Few 2300 ft.
Clouds: Broken 3400 ft.
Clouds: Overcast 4900 ft.

KJHW 180708Z AUTO 32012G18KT 10SM FEW023 BKN034 OVC049 01/M02 A3030 RMK AO2 FZRANO


Wind From 320°
Speed 12 kn.

 
 
jpsmedia.com for Web Design worldairports.se 2018   terms of use